Aérodrome :
LOGIN :

S'inscrire | Disclaimer

   EN    FR    IT 

 










Légende :    VFR   VFR Marginal   IFR   IFR Intensif   IFR Très Intensif
Visi : 
Plafond : 
>= 8 km
>= 3000ft
5 à 8 km
1000 à 3000 ft
1500m à 5 km
500 à 1000 ft
800 à 1500m
200 à 500 ft
< 800m
< 200 ft
Symboles :   Orages  Brouillard  Fortes neiges  Fortes précipitations  Vent > 20 kt
SIGMETs :   Divers  Orages  Givrage  Turbulence  Onde Orograph.  Cendres Volcan.






- Altitude de l'aérodrome : 87 ft
- Code IATA : AHO


LIEA - Fertilia Alghero

DERNIER METAR :
  • 190650Z 20004KT 140V240 CAVOK 25/19 Q1013

METARs EXPIRÉS :
  • 190620Z VRB02KT CAVOK 25/19 Q1013
  • 190550Z VRB02KT CAVOK 24/19 Q1013
  • 190520Z 14003KT 100V190 CAVOK 24/19 Q1012
  • 190450Z VRB02KT CAVOK 23/20 Q1012
  • 190420Z VRB01KT CAVOK 22/20 Q1012
  • 190350Z VRB02KT CAVOK 23/20 Q1012
  • 190320Z 02004KT CAVOK 22/20 Q1012
  • 190250Z 03002KT CAVOK 22/20 Q1012
  • 190220Z VRB02KT CAVOK 22/20 Q1012

TAF TAF LIEA
Valide du 19 à 06h jusqu'au 20 à 06h UTC


190500Z 1906/2006 VRB05KT 9999 FEW050
BECMG 1908/1910 24010KT
BECMG 1918/1920 VRB05KT



MET'MAP, la Météo Aéronautique d'un coup d'oeil ! - Copyright ORBIFLY Décembre 2007 - Disclaimer

ORBIFLY MET'MAP TEAM :

Programmation & Développement : Alexandra Zaïnal
Sur une idée originale de : Baudouin d'Aumeries
Soutien technique & logistique : Manuel Goepfert
Assistance : Marc-Olivier Méhu




SOURCES & CREDITS :

   NOAA